createdAt,value
2015-07-24T00:00:00.718Z,81.79
2015-07-24T00:00:13.062Z,81.79
2015-07-24T00:00:25.390Z,81.66
2015-07-24T00:00:37.750Z,81.85
2015-07-24T00:00:49.378Z,81.56
2015-07-24T00:01:01.737Z,81.85
2015-07-24T00:01:14.096Z,81.7
2015-07-24T00:01:26.456Z,81.85
2015-07-24T00:01:38.815Z,81.66
2015-07-24T00:01:51.191Z,81.95
2015-07-24T00:02:03.566Z,81.95
2015-07-24T00:02:15.972Z,81.95
2015-07-24T00:02:27.597Z,82.04
2015-07-24T00:02:39.941Z,82.04
2015-07-24T00:02:52.287Z,82.08
2015-07-24T00:03:04.631Z,81.56
2015-07-24T00:03:16.990Z,81.56
2015-07-24T00:03:29.334Z,81.37
2015-07-24T00:03:41.678Z,81.85
2015-07-24T00:03:54.023Z,81.37
2015-07-24T00:04:06.367Z,81.7
2015-07-24T00:04:18.711Z,81.7
2015-07-24T00:04:31.055Z,81.37
2015-07-24T00:04:43.398Z,81.6
2015-07-24T00:04:55.728Z,81.76
2015-07-24T00:05:08.057Z,82.23
2015-07-24T00:05:20.400Z,81.41
2015-07-24T00:05:32.744Z,81.37
2015-07-24T00:05:45.088Z,82.27
2015-07-24T00:05:57.434Z,81.76
2015-07-24T00:06:09.777Z,82.04
2015-07-24T00:06:22.137Z,81.66
2015-07-24T00:06:34.496Z,82.04
2015-07-24T00:06:46.871Z,81.95
2015-07-24T00:06:59.232Z,82.04
2015-07-24T00:07:11.592Z,81.95
2015-07-24T00:07:23.967Z,81.98
2015-07-24T00:07:36.326Z,81.95
2015-07-24T00:07:48.703Z,82.18
2015-07-24T00:08:01.063Z,82.18
2015-07-24T00:08:13.438Z,81.98
2015-07-24T00:08:25.781Z,82.04
2015-07-24T00:08:38.125Z,81.95
2015-07-24T00:08:50.455Z,82.04
2015-07-24T00:09:02.799Z,82.14
2015-07-24T00:09:15.127Z,81.95
2015-07-24T00:09:27.455Z,81.85
2015-07-24T00:09:39.799Z,81.95
2015-07-24T00:09:52.145Z,81.76
2015-07-24T00:10:04.473Z,81.85
2015-07-24T00:10:16.817Z,81.98
2015-07-24T00:10:29.160Z,81.98
2015-07-24T00:10:41.504Z,81.98
2015-07-24T00:10:53.850Z,82.14
2015-07-24T00:11:06.178Z,81.76
2015-07-24T00:11:18.522Z,82.04
2015-07-24T00:11:30.865Z,81.95
2015-07-24T00:11:43.225Z,81.76
2015-07-24T00:11:55.571Z,81.76
2015-07-24T00:12:07.930Z,81.76
2015-07-24T00:12:20.305Z,81.95
2015-07-24T00:12:32.696Z,81.95
2015-07-24T00:12:45.071Z,81.95
2015-07-24T00:12:57.463Z,81.76
2015-07-24T00:13:09.791Z,81.79
2015-07-24T00:13:22.135Z,81.76
2015-07-24T00:13:34.463Z,81.66
2015-07-24T00:13:46.807Z,82.04
2015-07-24T00:13:59.153Z,81.95
2015-07-24T00:14:11.496Z,81.76
2015-07-24T00:14:23.840Z,81.56
2015-07-24T00:14:36.168Z,81.76
2015-07-24T00:14:48.528Z,82.14
2015-07-24T00:15:00.155Z,81.85
2015-07-24T00:15:12.498Z,82.04
2015-07-24T00:15:24.842Z,81.85
2015-07-24T00:15:37.186Z,81.76
2015-07-24T00:15:49.530Z,82.23
2015-07-24T00:16:01.875Z,82.04
2015-07-24T00:16:14.219Z,82.23
2015-07-24T00:16:26.563Z,81.76
2015-07-24T00:16:38.922Z,81.37
2015-07-24T00:16:51.266Z,81.76
2015-07-24T00:17:03.612Z,81.85
2015-07-24T00:17:15.987Z,81.76
2015-07-24T00:17:27.659Z,82.04
2015-07-24T00:17:40.034Z,81.85
2015-07-24T00:17:52.424Z,82.14
2015-07-24T00:18:04.786Z,81.95
2015-07-24T00:18:17.161Z,81.85
2015-07-24T00:18:29.520Z,82.23
2015-07-24T00:18:41.848Z,82.14
2015-07-24T00:18:54.192Z,82.14
2015-07-24T00:19:06.538Z,82.14
2015-07-24T00:19:18.866Z,82.14
2015-07-24T00:19:31.194Z,82.14
2015-07-24T00:19:43.538Z,81.85
2015-07-24T00:19:55.866Z,81.76
2015-07-24T00:20:08.226Z,81.95
2015-07-24T00:20:20.554Z,81.66
2015-07-24T00:20:32.898Z,81.85
2015-07-24T00:20:45.226Z,81.76
2015-07-24T00:20:57.570Z,81.66
2015-07-24T00:21:09.931Z,81.85
2015-07-24T00:21:22.275Z,81.76
2015-07-24T00:21:34.603Z,81.85
2015-07-24T00:21:46.931Z,81.66
2015-07-24T00:21:59.291Z,81.76
2015-07-24T00:22:11.653Z,81.79
2015-07-24T00:22:23.997Z,81.76
2015-07-24T00:22:36.356Z,81.76
2015-07-24T00:22:48.716Z,81.66
2015-07-24T00:23:01.091Z,81.66
2015-07-24T00:23:12.748Z,81.85
2015-07-24T00:23:24.388Z,81.66
2015-07-24T00:23:36.763Z,81.76
2015-07-24T00:23:49.123Z,81.76
2015-07-24T00:24:01.513Z,81.98
2015-07-24T00:24:13.845Z,81.95
2015-07-24T00:24:26.188Z,81.56
2015-07-24T00:24:38.516Z,81.76
2015-07-24T00:24:50.860Z,81.76
2015-07-24T00:25:03.204Z,81.85
2015-07-24T00:25:15.534Z,81.66
2015-07-24T00:25:27.878Z,82.04
2015-07-24T00:25:39.503Z,82.04
2015-07-24T00:25:51.862Z,81.98
2015-07-24T00:26:04.206Z,82.23
2015-07-24T00:26:16.535Z,82.04
2015-07-24T00:26:28.879Z,82.18
2015-07-24T00:26:41.223Z,81.95
2015-07-24T00:26:52.848Z,81.95
2015-07-24T00:27:05.191Z,81.95
2015-07-24T00:27:17.537Z,81.95
2015-07-24T00:27:29.881Z,81.98
2015-07-24T00:27:42.240Z,82.18
2015-07-24T00:27:54.600Z,82.18
2015-07-24T00:28:06.943Z,82.08
2015-07-24T00:28:19.305Z,82.04
2015-07-24T00:28:31.695Z,81.98
2015-07-24T00:28:44.039Z,82.04
2015-07-24T00:28:56.414Z,82.27
2015-07-24T00:29:08.773Z,82.04
2015-07-24T00:29:21.119Z,82.08
2015-07-24T00:29:33.479Z,81.95
2015-07-24T00:29:45.807Z,82.08
2015-07-24T00:29:58.150Z,82.08
2015-07-24T00:30:10.479Z,82.04
2015-07-24T00:30:22.824Z,82.14
2015-07-24T00:30:35.168Z,82.08
2015-07-24T00:30:47.512Z,82.14
2015-07-24T00:30:59.840Z,82.08
2015-07-24T00:31:12.184Z,82.14
2015-07-24T00:31:24.515Z,81.95
2015-07-24T00:31:36.859Z,82.18
2015-07-24T00:31:49.187Z,82.04
2015-07-24T00:32:01.530Z,81.76
2015-07-24T00:32:13.874Z,81.51
2015-07-24T00:32:26.235Z,82.04
2015-07-24T00:32:38.578Z,81.85
2015-07-24T00:32:50.922Z,82.04
2015-07-24T00:33:03.250Z,81.95
2015-07-24T00:33:15.610Z,82.08
2015-07-24T00:33:27.955Z,81.98
2015-07-24T00:33:40.315Z,81.98
2015-07-24T00:33:52.658Z,81.95
2015-07-24T00:34:05.033Z,81.95
2015-07-24T00:34:17.393Z,82.14
2015-07-24T00:34:29.754Z,82.18
2015-07-24T00:34:42.114Z,82.18
2015-07-24T00:34:54.520Z,81.56
2015-07-24T00:35:06.879Z,81.47
2015-07-24T00:35:19.270Z,81.51
2015-07-24T00:35:31.616Z,81.56
2015-07-24T00:35:43.944Z,81.51
2015-07-24T00:35:56.287Z,81.6
2015-07-24T00:36:08.631Z,81.56
2015-07-24T00:36:20.959Z,81.6
2015-07-24T00:36:33.305Z,82.08
2015-07-24T00:36:45.633Z,81.37
2015-07-24T00:36:57.977Z,81.6
2015-07-24T00:37:10.321Z,81.51
2015-07-24T00:37:22.651Z,81.47
2015-07-24T00:37:34.995Z,81.56
2015-07-24T00:37:47.338Z,81.79
2015-07-24T00:37:59.698Z,81.66
2015-07-24T00:38:12.057Z,82.18
2015-07-24T00:38:24.387Z,81.66
2015-07-24T00:38:36.715Z,82.14
2015-07-24T00:38:49.059Z,81.66
2015-07-24T00:39:01.418Z,81.41
2015-07-24T00:39:13.762Z,81.76
2015-07-24T00:39:26.108Z,81.76
2015-07-24T00:39:38.483Z,81.51
2015-07-24T00:39:50.874Z,81.79
2015-07-24T00:40:03.233Z,81.47
2015-07-24T00:40:15.608Z,81.28
2015-07-24T00:40:27.985Z,81.6
2015-07-24T00:40:40.360Z,81.41
2015-07-24T00:40:52.719Z,82.04
2015-07-24T00:41:05.047Z,81.56
2015-07-24T00:41:17.391Z,82.14
2015-07-24T00:41:29.737Z,82.04
2015-07-24T00:41:42.174Z,82.08
2015-07-24T00:41:54.518Z,82.04
2015-07-24T00:42:06.862Z,82.04
2015-07-24T00:42:19.206Z,81.89
2015-07-24T00:42:31.535Z,81.76
2015-07-24T00:42:43.879Z,81.89
2015-07-24T00:42:56.488Z,81.95
2015-07-24T00:43:08.113Z,81.76
2015-07-24T00:43:20.457Z,81.95
2015-07-24T00:43:32.803Z,81.6
2015-07-24T00:43:45.132Z,81.66
2015-07-24T00:43:57.475Z,81.95
2015-07-24T00:44:09.803Z,81.95
2015-07-24T00:44:22.163Z,81.76
2015-07-24T00:44:34.524Z,81.85
2015-07-24T00:44:46.868Z,81.85
2015-07-24T00:44:59.227Z,81.85
2015-07-24T00:45:11.602Z,82.14
2015-07-24T00:45:23.993Z,81.85
2015-07-24T00:45:36.354Z,81.66
2015-07-24T00:45:48.714Z,81.66
2015-07-24T00:46:01.089Z,81.76
2015-07-24T00:46:13.464Z,81.66
2015-07-24T00:46:25.823Z,81.66
2015-07-24T00:46:38.152Z,81.76
2015-07-24T00:46:50.480Z,81.56
2015-07-24T00:47:02.824Z,81.37
2015-07-24T00:47:15.152Z,81.85
2015-07-24T00:47:27.496Z,81.95
2015-07-24T00:47:39.858Z,81.66
2015-07-24T00:47:52.202Z,82.04
2015-07-24T00:48:04.530Z,81.76
2015-07-24T00:48:16.874Z,81.56
2015-07-24T00:48:29.218Z,81.76
2015-07-24T00:48:41.563Z,81.76
2015-07-24T00:48:53.907Z,81.66
2015-07-24T00:49:06.267Z,81.95
2015-07-24T00:49:18.610Z,81.76
2015-07-24T00:49:30.954Z,81.56
2015-07-24T00:49:43.283Z,81.85
2015-07-24T00:49:54.924Z,82.14
2015-07-24T00:50:07.268Z,82.14
2015-07-24T00:50:19.611Z,82.23
2015-07-24T00:50:31.986Z,81.95
2015-07-24T00:50:44.380Z,81.95
2015-07-24T00:50:56.739Z,82.14
2015-07-24T00:51:09.130Z,81.95
2015-07-24T00:51:21.489Z,81.76
2015-07-24T00:51:33.880Z,81.85
2015-07-24T00:51:46.273Z,81.95
2015-07-24T00:51:58.616Z,81.85
2015-07-24T00:52:10.960Z,81.85
2015-07-24T00:52:23.288Z,81.85
2015-07-24T00:52:35.632Z,81.85
2015-07-24T00:52:47.977Z,82.04
2015-07-24T00:53:00.320Z,81.85
2015-07-24T00:53:12.664Z,81.76
2015-07-24T00:53:25.008Z,81.76
2015-07-24T00:53:37.336Z,81.66
2015-07-24T00:53:49.682Z,81.95
2015-07-24T00:54:02.026Z,81.95
2015-07-24T00:54:14.354Z,81.85
2015-07-24T00:54:26.697Z,82.14
2015-07-24T00:54:39.026Z,81.76
2015-07-24T00:54:51.357Z,82.04
2015-07-24T00:55:03.966Z,82.04
2015-07-24T00:55:16.294Z,82.14
2015-07-24T00:55:27.935Z,82.14
2015-07-24T00:55:39.591Z,82.23
2015-07-24T00:55:51.233Z,81.95
2015-07-24T00:56:03.576Z,82.23
2015-07-24T00:56:15.951Z,82.32
2015-07-24T00:56:28.326Z,82.23
2015-07-24T00:56:40.701Z,82.23
2015-07-24T00:56:53.063Z,81.85
2015-07-24T00:57:05.422Z,81.85
2015-07-24T00:57:17.782Z,81.95
2015-07-24T00:57:30.172Z,81.76
2015-07-24T00:57:42.516Z,81.66
2015-07-24T00:57:54.846Z,81.85
2015-07-24T00:58:07.190Z,82.14
2015-07-24T00:58:19.534Z,82.23
2015-07-24T00:58:31.877Z,82.14
2015-07-24T00:58:44.221Z,82.04
2015-07-24T00:58:56.598Z,82.04
2015-07-24T00:59:08.957Z,82.14
2015-07-24T00:59:21.301Z,81.85
2015-07-24T00:59:33.645Z,81.85
2015-07-24T00:59:45.973Z,82.42
2015-07-24T00:59:58.319Z,81.95
2015-07-24T01:00:10.678Z,82.51
2015-07-24T01:00:23.022Z,82.51
2015-07-24T01:00:35.366Z,82.42
2015-07-24T01:00:47.694Z,82.32
2015-07-24T01:01:00.040Z,82.23
2015-07-24T01:01:12.399Z,82.32
2015-07-24T01:01:24.727Z,82.42
2015-07-24T01:01:37.071Z,82.42
2015-07-24T01:01:49.430Z,81.85
2015-07-24T01:02:01.776Z,82.14
2015-07-24T01:02:14.135Z,81.95
2015-07-24T01:02:26.510Z,82.04
2015-07-24T01:02:38.870Z,82.23
2015-07-24T01:02:51.245Z,82.04
2015-07-24T01:03:03.606Z,82.14
2015-07-24T01:03:15.965Z,82.14
2015-07-24T01:03:28.309Z,82.04
2015-07-24T01:03:40.653Z,82.04
2015-07-24T01:03:53.012Z,81.76
2015-07-24T01:04:05.358Z,81.66
2015-07-24T01:04:17.702Z,81.85
2015-07-24T01:04:30.030Z,81.95
2015-07-24T01:04:42.374Z,81.76
2015-07-24T01:04:54.717Z,81.85
2015-07-24T01:05:07.063Z,81.76
2015-07-24T01:05:19.407Z,81.95
2015-07-24T01:05:31.751Z,81.85
2015-07-24T01:05:44.094Z,82.04
2015-07-24T01:05:56.423Z,81.85
2015-07-24T01:06:08.768Z,81.95
2015-07-24T01:06:21.096Z,81.76
2015-07-24T01:06:33.456Z,81.76
2015-07-24T01:06:45.800Z,81.76
2015-07-24T01:06:58.143Z,81.85
2015-07-24T01:07:10.489Z,81.76
2015-07-24T01:07:22.864Z,81.85
2015-07-24T01:07:35.239Z,81.76
2015-07-24T01:07:47.598Z,82.04
2015-07-24T01:07:59.991Z,82.14
2015-07-24T01:08:12.350Z,82.04
2015-07-24T01:08:24.725Z,82.04
2015-07-24T01:08:37.116Z,82.14
2015-07-24T01:08:49.475Z,82.14
2015-07-24T01:09:01.851Z,82.14
2015-07-24T01:09:14.195Z,82.14
2015-07-24T01:09:26.523Z,82.04
2015-07-24T01:09:38.867Z,82.04
2015-07-24T01:09:51.211Z,81.66
2015-07-24T01:10:03.573Z,81.95
2015-07-24T01:10:16.183Z,81.85
2015-07-24T01:10:28.526Z,81.85
2015-07-24T01:10:40.870Z,81.85
2015-07-24T01:10:53.198Z,81.95
2015-07-24T01:11:05.544Z,81.66
2015-07-24T01:11:17.872Z,81.76
2015-07-24T01:11:30.200Z,82.14
2015-07-24T01:11:42.544Z,81.66
2015-07-24T01:11:54.888Z,82.14
2015-07-24T01:12:07.233Z,82.14
2015-07-24T01:12:19.577Z,81.85
2015-07-24T01:12:31.937Z,82.42
2015-07-24T01:12:44.280Z,82.61
2015-07-24T01:12:56.640Z,82.8
2015-07-24T01:13:08.985Z,82.42
2015-07-24T01:13:21.360Z,82.51
2015-07-24T01:13:33.735Z,82.51
2015-07-24T01:13:46.110Z,82.61
2015-07-24T01:13:58.470Z,82.32
2015-07-24T01:14:10.831Z,82.51
2015-07-24T01:14:23.222Z,82.32
2015-07-24T01:14:35.550Z,82.32
2015-07-24T01:14:47.894Z,82.32
2015-07-24T01:15:00.237Z,82.32
2015-07-24T01:15:12.582Z,82.42
2015-07-24T01:15:24.926Z,82.51
2015-07-24T01:15:37.270Z,82.23
2015-07-24T01:15:49.598Z,82.04
2015-07-24T01:16:01.942Z,82.23
2015-07-24T01:16:14.303Z,82.51
2015-07-24T01:16:26.647Z,82.7
2015-07-24T01:16:39.022Z,82.61
2015-07-24T01:16:51.365Z,82.7
2015-07-24T01:17:03.694Z,82.8
2015-07-24T01:17:15.336Z,82.51
2015-07-24T01:17:27.680Z,82.99
2015-07-24T01:17:40.024Z,82.99
2015-07-24T01:17:52.367Z,82.99
2015-07-24T01:18:04.742Z,83.09
2015-07-24T01:18:17.089Z,82.99
2015-07-24T01:18:29.449Z,82.51
2015-07-24T01:18:41.792Z,82.7
2015-07-24T01:18:54.152Z,82.61
2015-07-24T01:19:06.511Z,82.61
2015-07-24T01:19:18.871Z,82.04
2015-07-24T01:19:31.246Z,82.32
2015-07-24T01:19:43.606Z,82.42
2015-07-24T01:19:55.981Z,82.32
2015-07-24T01:20:08.356Z,82.14
2015-07-24T01:20:20.686Z,82.42
2015-07-24T01:20:33.014Z,82.42
2015-07-24T01:20:45.342Z,82.61
2015-07-24T01:20:57.702Z,82.61
2015-07-24T01:21:10.045Z,82.51
2015-07-24T01:21:22.392Z,82.32
2015-07-24T01:21:34.720Z,82.51
2015-07-24T01:21:47.064Z,82.42
2015-07-24T01:21:59.267Z,82.51
2015-07-24T01:22:11.611Z,82.42
2015-07-24T01:22:23.957Z,82.32
2015-07-24T01:22:36.300Z,82.51
2015-07-24T01:22:48.628Z,82.14
2015-07-24T01:23:00.972Z,82.7
2015-07-24T01:23:13.316Z,82.7
2015-07-24T01:23:25.646Z,82.61
2015-07-24T01:23:37.990Z,82.32
2015-07-24T01:23:48.912Z,82.32
2015-07-24T01:24:01.271Z,82.7
2015-07-24T01:24:13.630Z,82.7
2015-07-24T01:24:25.975Z,82.61
2015-07-24T01:24:38.194Z,82.61
2015-07-24T01:24:50.569Z,82.7
2015-07-24T01:25:02.928Z,82.61
2015-07-24T01:25:15.288Z,82.99
2015-07-24T01:25:27.666Z,82.99
2015-07-24T01:25:40.041Z,82.99
2015-07-24T01:25:52.384Z,82.99
2015-07-24T01:26:04.713Z,82.9
2015-07-24T01:26:17.056Z,82.7
2015-07-24T01:26:29.401Z,83.09
2015-07-24T01:26:41.745Z,82.99
2015-07-24T01:26:54.073Z,82.99
2015-07-24T01:27:06.417Z,83.09
2015-07-24T01:27:18.776Z,82.9
2015-07-24T01:27:31.106Z,82.9
2015-07-24T01:27:43.450Z,82.61
2015-07-24T01:27:55.794Z,82.9
2015-07-24T01:28:08.122Z,82.7
2015-07-24T01:28:20.450Z,82.61
2015-07-24T01:28:32.796Z,82.61
2015-07-24T01:28:45.124Z,83.28
2015-07-24T01:28:57.468Z,83.09
2015-07-24T01:29:09.796Z,83.09
2015-07-24T01:29:22.139Z,82.9
2015-07-24T01:29:34.501Z,83.09
2015-07-24T01:29:46.860Z,83.18
2015-07-24T01:29:59.204Z,82.99
2015-07-24T01:30:11.579Z,83.28
2015-07-24T01:30:23.970Z,82.8
2015-07-24T01:30:36.331Z,82.9
2015-07-24T01:30:48.690Z,83.09
2015-07-24T01:31:01.081Z,83.28
2015-07-24T01:31:13.456Z,83.47
2015-07-24T01:31:25.815Z,83.47
2015-07-24T01:31:38.177Z,83.65
2015-07-24T01:31:50.505Z,83.28
2015-07-24T01:32:02.849Z,83.56
2015-07-24T01:32:15.177Z,83.56
2015-07-24T01:32:27.520Z,83.37
2015-07-24T01:32:39.866Z,83.56
2015-07-24T01:32:52.210Z,83.94
2015-07-24T01:33:04.554Z,83.85
2015-07-24T01:33:16.882Z,83.85
2015-07-24T01:33:29.241Z,83.65
2015-07-24T01:33:40.868Z,83.75
2015-07-24T01:33:52.493Z,83.85
2015-07-24T01:34:04.837Z,83.65
2015-07-24T01:34:17.196Z,83.56
2015-07-24T01:34:29.540Z,83.37
2015-07-24T01:34:41.870Z,83.85
2015-07-24T01:34:54.214Z,83.28
2015-07-24T01:35:06.573Z,83.75
2015-07-24T01:35:18.917Z,83.65
2015-07-24T01:35:31.276Z,83.85
2015-07-24T01:35:43.622Z,83.85
2015-07-24T01:35:55.982Z,83.65
2015-07-24T01:36:08.357Z,83.37
2015-07-24T01:36:20.732Z,83.85
2015-07-24T01:36:33.122Z,83.65
2015-07-24T01:36:45.499Z,83.56
2015-07-24T01:36:57.859Z,84.04
2015-07-24T01:37:10.218Z,83.65
2015-07-24T01:37:22.562Z,83.85
2015-07-24T01:37:34.905Z,83.85
2015-07-24T01:37:47.250Z,83.85
2015-07-24T01:37:59.594Z,83.94
2015-07-24T01:38:11.938Z,83.85
2015-07-24T01:38:24.281Z,83.94
2015-07-24T01:38:36.625Z,83.75
2015-07-24T01:38:48.955Z,83.85
2015-07-24T01:39:00.580Z,83.85
2015-07-24T01:39:12.924Z,83.85
2015-07-24T01:39:25.268Z,83.85
2015-07-24T01:39:37.596Z,83.47
2015-07-24T01:39:49.943Z,82.99
2015-07-24T01:40:02.286Z,82.9
2015-07-24T01:40:14.630Z,83.09
2015-07-24T01:40:26.974Z,82.99
2015-07-24T01:40:39.318Z,82.99
2015-07-24T01:40:51.663Z,82.99
2015-07-24T01:41:04.007Z,82.9
2015-07-24T01:41:16.367Z,83.09
2015-07-24T01:41:28.710Z,83.09
2015-07-24T01:41:41.070Z,83.18
2015-07-24T01:41:53.447Z,83.47
2015-07-24T01:42:05.822Z,83.56
2015-07-24T01:42:18.181Z,83.65
2015-07-24T01:42:30.556Z,83.28
2015-07-24T01:42:42.947Z,83.37
2015-07-24T01:42:55.323Z,83.37
2015-07-24T01:43:07.666Z,83.75
2015-07-24T01:43:19.291Z,83.75
2015-07-24T01:43:31.635Z,83.56
2015-07-24T01:43:43.963Z,83.65
2015-07-24T01:43:56.310Z,83.65
2015-07-24T01:44:08.654Z,83.56
2015-07-24T01:44:20.982Z,83.56
2015-07-24T01:44:33.326Z,83.56
2015-07-24T01:44:45.669Z,83.75
2015-07-24T01:44:58.014Z,83.56
2015-07-24T01:45:09.639Z,83.75
2015-07-24T01:45:21.967Z,83.65
2015-07-24T01:45:34.311Z,83.56
2015-07-24T01:45:46.655Z,83.94
2015-07-24T01:45:58.985Z,83.94
2015-07-24T01:46:11.329Z,84.33
2015-07-24T01:46:23.938Z,84.33
2015-07-24T01:46:36.282Z,84.23
2015-07-24T01:46:48.626Z,84.33
2015-07-24T01:47:00.971Z,84.33
2015-07-24T01:47:13.331Z,84.13
2015-07-24T01:47:25.721Z,84.33
2015-07-24T01:47:38.081Z,84.23
2015-07-24T01:47:50.473Z,84.13
2015-07-24T01:48:02.833Z,84.13
2015-07-24T01:48:15.208Z,84.33
2015-07-24T01:48:27.567Z,84.13
2015-07-24T01:48:39.911Z,83.94
2015-07-24T01:48:52.257Z,83.94
2015-07-24T01:49:04.600Z,83.56
2015-07-24T01:49:16.944Z,83.56
2015-07-24T01:49:29.319Z,83.75
2015-07-24T01:49:41.678Z,83.75
2015-07-24T01:49:54.024Z,83.75
2015-07-24T01:50:06.352Z,83.75
2015-07-24T01:50:18.696Z,83.75
2015-07-24T01:50:31.040Z,83.75
2015-07-24T01:50:43.368Z,83.75
2015-07-24T01:50:55.714Z,83.56
2015-07-24T01:51:08.057Z,83.75
2015-07-24T01:51:20.401Z,83.75
2015-07-24T01:51:32.807Z,83.75
2015-07-24T01:51:45.151Z,83.75
2015-07-24T01:51:57.481Z,83.75
2015-07-24T01:52:09.856Z,83.65
2015-07-24T01:52:22.216Z,83.65
2015-07-24T01:52:34.559Z,83.94
2015-07-24T01:52:46.919Z,83.85
2015-07-24T01:52:59.311Z,83.75
2015-07-24T01:53:11.686Z,83.75
2015-07-24T01:53:24.061Z,83.75
2015-07-24T01:53:36.421Z,83.75
2015-07-24T01:53:48.827Z,83.75
2015-07-24T01:54:01.203Z,83.85
2015-07-24T01:54:13.578Z,83.7
2015-07-24T01:54:25.906Z,83.56
2015-07-24T01:54:38.250Z,83.51
2015-07-24T01:54:50.594Z,83.65
2015-07-24T01:55:02.940Z,83.28
2015-07-24T01:55:15.284Z,83.51
2015-07-24T01:55:27.628Z,82.61
2015-07-24T01:55:39.972Z,83.32
2015-07-24T01:55:52.315Z,82.99
2015-07-24T01:56:04.660Z,83.22
2015-07-24T01:56:17.020Z,82.84
2015-07-24T01:56:29.363Z,83.03
2015-07-24T01:56:41.707Z,83.13
2015-07-24T01:56:54.035Z,83.03
2015-07-24T01:57:06.398Z,83.09
2015-07-24T01:57:18.741Z,82.99
2015-07-24T01:57:31.148Z,83.09
2015-07-24T01:57:43.491Z,82.93
2015-07-24T01:57:55.819Z,83.32
2015-07-24T01:58:08.181Z,82.84
2015-07-24T01:58:20.540Z,83.03
2015-07-24T01:58:32.884Z,82.9
2015-07-24T01:58:45.275Z,82.65
2015-07-24T01:58:56.915Z,82.84
2015-07-24T01:59:09.277Z,82.93
2015-07-24T01:59:20.917Z,82.93
2015-07-24T01:59:33.277Z,82.56
2015-07-24T01:59:45.667Z,82.65
2015-07-24T01:59:57.995Z,82.75
2015-07-24T02:00:10.325Z,82.65
2015-07-24T02:00:22.685Z,82.84
2015-07-24T02:00:35.029Z,82.75
2015-07-24T02:00:47.388Z,83.03
2015-07-24T02:00:59.732Z,83.03
2015-07-24T02:01:12.076Z,83.03
2015-07-24T02:01:24.420Z,83.13
2015-07-24T02:01:36.780Z,83.03
2015-07-24T02:01:49.123Z,83.03
2015-07-24T02:02:01.454Z,82.75
2015-07-24T02:02:13.814Z,82.37
2015-07-24T02:02:26.142Z,82.37
2015-07-24T02:02:38.345Z,82.84
2015-07-24T02:02:50.704Z,82.75
2015-07-24T02:03:02.894Z,82.56
2015-07-24T02:03:15.238Z,82.56
2015-07-24T02:03:27.581Z,82.37
2015-07-24T02:03:39.925Z,82.37
2015-07-24T02:03:52.285Z,82.27
2015-07-24T02:04:04.646Z,82.27
2015-07-24T02:04:17.021Z,82.46
2015-07-24T02:04:29.380Z,82.27
2015-07-24T02:04:41.740Z,82.46
2015-07-24T02:04:54.115Z,82.46
2015-07-24T02:05:06.491Z,82.46
2015-07-24T02:05:18.866Z,82.46
2015-07-24T02:05:31.209Z,82.27
2015-07-24T02:05:43.553Z,82.56
2015-07-24T02:05:55.881Z,82.75
2015-07-24T02:06:07.525Z,82.84
2015-07-24T02:06:19.869Z,82.37
2015-07-24T02:06:32.212Z,82.75
2015-07-24T02:06:44.556Z,82.84
2015-07-24T02:06:56.884Z,82.84
2015-07-24T02:07:09.245Z,82.75
2015-07-24T02:07:21.573Z,82.84
2015-07-24T02:07:33.901Z,82.93
2015-07-24T02:07:46.245Z,82.84
2015-07-24T02:07:58.573Z,82.75
2015-07-24T02:08:10.762Z,82.75
2015-07-24T02:08:23.090Z,82.84
2015-07-24T02:08:35.700Z,83.13
2015-07-24T02:08:48.028Z,82.75
2015-07-24T02:08:59.747Z,82.65
2015-07-24T02:09:11.389Z,83.22
2015-07-24T02:09:23.733Z,83.13
2015-07-24T02:09:36.092Z,83.03
2015-07-24T02:09:48.467Z,83.13
2015-07-24T02:10:00.842Z,83.13
2015-07-24T02:10:13.204Z,83.03
2015-07-24T02:10:25.548Z,83.03
2015-07-24T02:10:37.938Z,82.93
2015-07-24T02:10:50.313Z,83.03
2015-07-24T02:11:02.641Z,83.03
2015-07-24T02:11:14.987Z,83.03
2015-07-24T02:11:27.315Z,83.03
2015-07-24T02:11:39.518Z,83.03
2015-07-24T02:11:51.862Z,82.8
2015-07-24T02:12:04.221Z,83.32
2015-07-24T02:12:16.567Z,82.75
2015-07-24T02:12:28.911Z,82.65
2015-07-24T02:12:41.270Z,82.56
2015-07-24T02:12:53.598Z,83.13
2015-07-24T02:13:05.942Z,82.65
2015-07-24T02:13:18.272Z,82.75
2015-07-24T02:13:30.632Z,83.22
2015-07-24T02:13:42.960Z,83.13
2015-07-24T02:13:55.288Z,83.03
2015-07-24T02:14:06.929Z,82.93
2015-07-24T02:14:19.274Z,82.93
2015-07-24T02:14:31.618Z,83.13
2015-07-24T02:14:43.977Z,83.03
2015-07-24T02:14:56.321Z,83.03
2015-07-24T02:15:08.696Z,83.13
2015-07-24T02:15:21.058Z,83.13
2015-07-24T02:15:33.433Z,83.13
2015-07-24T02:15:45.808Z,83.13
2015-07-24T02:15:58.167Z,82.75
2015-07-24T02:16:10.542Z,82.75
2015-07-24T02:16:22.903Z,83.41
2015-07-24T02:16:35.263Z,83.41
2015-07-24T02:16:47.622Z,83.51
2015-07-24T02:16:59.247Z,83.7
2015-07-24T02:17:11.591Z,83.8
2015-07-24T02:17:23.979Z,83.61
2015-07-24T02:17:36.307Z,83.61
2015-07-24T02:17:47.947Z,83.41
2015-07-24T02:18:00.275Z,83.61
2015-07-24T02:18:12.619Z,83.51
2015-07-24T02:18:25.024Z,83.51
2015-07-24T02:18:37.367Z,83.61
2015-07-24T02:18:49.711Z,83.56
2015-07-24T02:19:02.055Z,83.61
2015-07-24T02:19:14.399Z,83.47
2015-07-24T02:19:26.773Z,83.61
2015-07-24T02:19:39.116Z,83.51
2015-07-24T02:19:51.476Z,83.61
2015-07-24T02:20:03.804Z,84.08
2015-07-24T02:20:16.148Z,84.17
2015-07-24T02:20:28.553Z,83.7
2015-07-24T02:20:40.897Z,84.08
2015-07-24T02:20:53.256Z,84.17
2015-07-24T02:21:05.647Z,83.89
2015-07-24T02:21:18.022Z,83.65
2015-07-24T02:21:30.424Z,83.89
2015-07-24T02:21:42.799Z,83.89
2015-07-24T02:21:55.190Z,83.89
2015-07-24T02:22:07.549Z,83.8
2015-07-24T02:22:19.893Z,83.7
2015-07-24T02:22:32.239Z,83.7
2015-07-24T02:22:44.583Z,83.89
2015-07-24T02:22:56.927Z,83.94
2015-07-24T02:23:09.270Z,84.17
2015-07-24T02:23:21.598Z,84.17
2015-07-24T02:23:33.976Z,83.98
2015-07-24T02:23:46.304Z,83.56
2015-07-24T02:23:57.945Z,83.61
2015-07-24T02:24:10.288Z,83.41
2015-07-24T02:24:22.663Z,83.09
2015-07-24T02:24:35.024Z,83.32
2015-07-24T02:24:47.633Z,82.84
2015-07-24T02:24:59.977Z,82.93
2015-07-24T02:25:12.305Z,83.18
2015-07-24T02:25:24.633Z,83.22
2015-07-24T02:25:36.995Z,82.65
2015-07-24T02:25:49.339Z,82.8
2015-07-24T02:26:01.683Z,82.56
2015-07-24T02:26:13.323Z,82.9
2015-07-24T02:26:25.683Z,83.13
2015-07-24T02:26:38.088Z,82.8
2015-07-24T02:26:50.448Z,82.56
2015-07-24T02:27:02.823Z,82.75
2015-07-24T02:27:15.182Z,83.32
2015-07-24T02:27:27.541Z,83.03
2015-07-24T02:27:39.909Z,83.13
2015-07-24T02:27:51.565Z,83.03
2015-07-24T02:28:03.909Z,83.13
2015-07-24T02:28:16.237Z,83.03
2015-07-24T02:28:28.581Z,82.75
2015-07-24T02:28:40.931Z,83.03
2015-07-24T02:28:53.275Z,83.41
2015-07-24T02:29:05.619Z,83.51
2015-07-24T02:29:17.963Z,83.41
2015-07-24T02:29:30.306Z,83.75
2015-07-24T02:29:42.658Z,83.85
2015-07-24T02:29:55.002Z,83.7
2015-07-24T02:30:07.330Z,83.56
2015-07-24T02:30:19.674Z,83.61
2015-07-24T02:30:32.018Z,83.7
2015-07-24T02:30:44.369Z,83.89
2015-07-24T02:30:56.713Z,83.75
2015-07-24T02:31:09.057Z,83.61
2015-07-24T02:31:21.385Z,83.75
2015-07-24T02:31:33.744Z,83.75
2015-07-24T02:31:46.094Z,83.75
2015-07-24T02:31:58.453Z,83.61
2015-07-24T02:32:10.797Z,83.7
2015-07-24T02:32:23.188Z,83.41
2015-07-24T02:32:35.547Z,83.32
2015-07-24T02:32:47.910Z,83.89
2015-07-24T02:33:00.269Z,83.51
2015-07-24T02:33:12.628Z,83.89
2015-07-24T02:33:25.003Z,83.8
2015-07-24T02:33:37.378Z,83.89
2015-07-24T02:33:49.710Z,83.89
2015-07-24T02:34:02.054Z,83.8
2015-07-24T02:34:14.398Z,83.41
2015-07-24T02:34:26.742Z,83.32
2015-07-24T02:34:39.101Z,83.41
2015-07-24T02:34:51.433Z,83.22
2015-07-24T02:35:03.777Z,82.93
2015-07-24T02:35:16.121Z,82.93
2015-07-24T02:35:28.464Z,82.93
2015-07-24T02:35:40.808Z,83.32
2015-07-24T02:35:53.141Z,83.37
2015-07-24T02:36:05.469Z,83.03
2015-07-24T02:36:17.829Z,82.8
2015-07-24T02:36:30.188Z,83.09
2015-07-24T02:36:42.516Z,83.03
2015-07-24T02:36:54.879Z,83.03
2015-07-24T02:37:07.222Z,82.99
2015-07-24T02:37:19.582Z,83.09
2015-07-24T02:37:31.972Z,82.93
2015-07-24T02:37:44.316Z,83.03
2015-07-24T02:37:56.694Z,83.37
2015-07-24T02:38:09.054Z,83.09
2015-07-24T02:38:21.429Z,83.13
2015-07-24T02:38:33.819Z,82.84
2015-07-24T02:38:46.194Z,83.41
2015-07-24T02:38:58.572Z,83.89